Time;durP1;ratioP1;P1;durP2;ratioP2;P2;SDS_P1;SDS_P2;PMS_P1;PMS_P2;Temp;Humidity;BMP_temperature;BMP_pressure;BME280_temperature;BME280_humidity;BME280_pressure;Samples;Min_cycle;Max_cycle;Signal;HPM_P1;HPM_P2
2021/09/20 00:00:17;;;;;;;9.28;5.87;;;;;;;15.37;100.00;100192.47;1679977;84;21034;-83
2021/09/20 00:02:45;;;;;;;6.20;5.70;;;;;;;15.37;100.00;100202.96;1651158;85;21078;-83
2021/09/20 00:05:14;;;;;;;6.35;5.75;;;;;;;15.35;100.00;100202.28;1685261;84;20964;-82
2021/09/20 00:07:41;;;;;;;6.70;5.62;;;;;;;15.32;100.00;100203.09;1680009;84;21058;-83
2021/09/20 00:10:10;;;;;;;8.90;5.85;;;;;;;15.24;100.00;100201.27;1683017;84;21062;-81
2021/09/20 00:12:39;;;;;;;7.55;6.75;;;;;;;15.21;100.00;100198.47;1685411;84;21098;-82
2021/09/20 00:15:08;;;;;;;8.50;6.70;;;;;;;15.17;100.00;100197.63;1680156;84;21092;-83
2021/09/20 00:17:37;;;;;;;13.43;7.90;;;;;;;15.09;100.00;100197.08;1685539;84;21056;-81
2021/09/20 00:20:09;;;;;;;9.28;7.28;;;;;;;15.05;100.00;100196.56;1685311;84;21079;-83
2021/09/20 00:22:37;;;;;;;;;;;;;;;14.98;100.00;100192.92;1687922;85;21109;-82
2021/09/20 00:25:08;;;;;;;7.85;6.97;;;;;;;14.92;100.00;100196.16;1700996;84;20599;-81
2021/09/20 00:27:35;;;;;;;9.68;7.50;;;;;;;14.83;100.00;100194.80;1679897;84;22733;-81
2021/09/20 00:30:05;;;;;;;9.55;7.92;;;;;;;14.75;100.00;100192.59;1674008;84;21533;-82
2021/09/20 00:32:34;;;;;;;9.05;7.60;;;;;;;14.68;100.00;100198.95;1684966;85;21069;-82
2021/09/20 00:35:03;;;;;;;8.23;7.45;;;;;;;14.67;100.00;100199.91;1685220;84;21548;-81
2021/09/20 00:37:32;;;;;;;13.30;7.70;;;;;;;14.69;100.00;100197.97;1685389;84;21590;-83
2021/09/20 00:39:59;;;;;;;9.63;8.48;;;;;;;14.72;100.00;100198.16;1685554;85;21154;-83
2021/09/20 00:42:26;;;;;;;14.03;9.20;;;;;;;14.73;100.00;100190.13;1680018;84;21104;-80
2021/09/20 00:44:55;;;;;;;11.22;9.03;;;;;;;14.69;100.00;100184.03;1678213;85;20995;-83
2021/09/20 00:47:23;;;;;;;13.90;10.30;;;;;;;14.63;100.00;100184.95;1682885;84;21032;-83
2021/09/20 00:49:51;;;;;;;17.82;10.40;;;;;;;14.64;100.00;100185.77;1682159;84;21083;-83
2021/09/20 00:52:18;;;;;;;21.68;11.35;;;;;;;14.67;100.00;100186.81;1666963;85;21021;-81
2021/09/20 00:54:45;;;;;;;17.35;10.70;;;;;;;14.69;100.00;100182.25;1668567;84;21078;-80
2021/09/20 00:57:13;;;;;;;16.17;11.38;;;;;;;14.73;100.00;100194.56;1685940;85;21567;-83
2021/09/20 00:59:40;;;;;;;37.10;12.88;;;;;;;14.75;100.00;100189.49;1666313;84;21509;-83
2021/09/20 01:02:07;;;;;;;23.40;12.40;;;;;;;14.79;100.00;100192.13;1663987;84;21114;-83
2021/09/20 01:04:34;;;;;;;17.92;11.68;;;;;;;14.85;100.00;100189.89;1693608;84;21146;-84
2021/09/20 01:07:03;;;;;;;15.28;12.03;;;;;;;14.87;100.00;100187.91;1693437;84;21020;-81
2021/09/20 01:09:30;;;;;;;14.07;11.33;;;;;;;14.89;100.00;100187.28;1663938;84;21113;-85
2021/09/20 01:11:59;;;;;;;18.98;11.80;;;;;;;14.91;100.00;100180.91;1693721;84;21027;-82
2021/09/20 01:14:26;;;;;;;16.48;12.35;;;;;;;14.95;100.00;100190.59;1663933;84;21090;-81
2021/09/20 01:16:55;;;;;;;18.10;12.35;;;;;;;14.99;100.00;100185.39;1693434;84;21126;-82
2021/09/20 01:19:22;;;;;;;15.05;12.05;;;;;;;15.01;100.00;100188.69;1663558;84;21079;-82
2021/09/20 01:21:52;;;;;;;16.17;12.68;;;;;;;15.02;100.00;100189.02;1663601;84;21626;-83
2021/09/20 01:24:19;;;;;;;15.53;12.98;;;;;;;15.03;100.00;100191.14;1663672;84;21055;-83
2021/09/20 01:26:46;;;;;;;20.88;13.15;;;;;;;15.02;100.00;100187.71;1663961;84;21102;-82
2021/09/20 01:29:13;;;;;;;15.03;12.25;;;;;;;15.01;100.00;100186.06;1663674;84;21799;-81
2021/09/20 01:31:42;;;;;;;13.62;11.88;;;;;;;15.00;100.00;100196.22;1693337;84;21051;-80
2021/09/20 01:34:08;;;;;;;22.52;12.60;;;;;;;15.03;100.00;100204.25;1693354;84;21059;-83
2021/09/20 01:36:35;;;;;;;15.72;11.12;;;;;;;15.06;100.00;100208.70;1663868;84;21585;-81
2021/09/20 01:39:17;;;;;;;17.32;12.03;;;;;;;15.07;100.00;100199.86;1693495;84;21023;-81
2021/09/20 01:41:46;;;;;;;18.37;12.13;;;;;;;15.10;100.00;100194.28;1661082;84;21182;-82
2021/09/20 01:44:14;;;;;;;14.83;11.08;;;;;;;15.13;100.00;100190.05;1663637;84;21344;-83
2021/09/20 01:46:46;;;;;;;10.98;9.88;;;;;;;15.13;100.00;100187.43;1693597;84;21024;-80
2021/09/20 01:49:15;;;;;;;11.63;10.43;;;;;;;15.09;100.00;100186.11;1662458;84;21063;-81
2021/09/20 01:51:43;;;;;;;11.97;10.05;;;;;;;15.07;100.00;100187.22;1687611;82;21089;-81
2021/09/20 01:54:11;;;;;;;11.70;9.90;;;;;;;15.05;100.00;100187.89;1698211;83;22019;-80
2021/09/20 01:56:40;;;;;;;12.37;9.78;;;;;;;15.04;100.00;100193.60;1655587;85;21056;-84
2021/09/20 01:59:07;;;;;;;9.70;8.80;;;;;;;15.03;100.00;100199.82;1669739;85;21029;-81
2021/09/20 02:01:35;;;;;;;10.43;8.73;;;;;;;15.06;100.00;100203.45;1698569;84;21042;-82
2021/09/20 02:04:03;;;;;;;11.10;8.43;;;;;;;15.08;100.00;100205.91;1668705;85;20982;-82
2021/09/20 02:06:30;;;;;;;8.88;7.62;;;;;;;15.05;100.00;100205.73;1678628;85;20960;-82
2021/09/20 02:08:57;;;;;;;10.63;7.60;;;;;;;15.04;100.00;100203.28;1677543;85;21020;-80
2021/09/20 02:11:27;;;;;;;14.38;8.33;;;;;;;15.00;100.00;100198.84;1698231;83;21086;-82
2021/09/20 02:13:54;;;;;;;12.10;8.03;;;;;;;14.97;100.00;100196.04;1682891;84;21068;-81
2021/09/20 02:16:22;;;;;;;9.60;7.85;;;;;;;14.93;100.00;100193.37;1673686;85;21102;-80
2021/09/20 02:18:49;;;;;;;11.88;8.28;;;;;;;14.92;100.00;100196.16;1673119;84;21049;-84
2021/09/20 02:21:18;;;;;;;12.33;8.30;;;;;;;14.91;100.00;100201.88;1698589;84;21011;-82
2021/09/20 02:23:45;;;;;;;11.90;8.13;;;;;;;14.88;100.00;100206.61;1669055;86;21054;-82
2021/09/20 02:26:12;;;;;;;17.35;8.00;;;;;;;14.86;100.00;100205.95;1683025;85;21549;-81
2021/09/20 02:28:41;;;;;;;10.50;7.55;;;;;;;14.85;100.00;100199.87;1679293;84;21038;-82
2021/09/20 02:31:09;;;;;;;10.63;7.30;;;;;;;14.87;100.00;100202.33;1655714;85;21902;-79
2021/09/20 02:33:38;;;;;;;10.75;7.65;;;;;;;14.88;100.00;100200.05;1675825;85;21064;-80
2021/09/20 02:36:07;;;;;;;10.90;6.87;;;;;;;14.83;100.00;100203.97;1695456;84;21093;-82
2021/09/20 02:38:35;;;;;;;12.73;6.95;;;;;;;14.82;100.00;100210.19;1642195;85;21551;-81
2021/09/20 02:41:04;;;;;;;11.20;6.60;;;;;;;14.80;100.00;100210.81;1677193;85;21035;-80
2021/09/20 02:43:34;;;;;;;10.35;6.08;;;;;;;14.79;100.00;100207.05;1678396;85;21583;-80
2021/09/20 02:46:01;;;;;;;14.95;6.75;;;;;;;14.73;100.00;100207.66;1678621;84;21032;-80
2021/09/20 02:48:28;;;;;;;25.50;6.97;;;;;;;14.69;100.00;100203.22;1671400;84;21092;-79
2021/09/20 02:50:55;;;;;;;23.95;7.65;;;;;;;14.64;100.00;100201.02;1661971;85;21168;-81
2021/09/20 02:53:23;;;;;;;25.68;7.67;;;;;;;14.57;100.00;100216.17;1668563;85;21143;-81
2021/09/20 02:55:51;;;;;;;11.28;6.33;;;;;;;14.54;100.00;100221.23;1667565;84;21011;-81
2021/09/20 02:58:18;;;;;;;16.10;7.20;;;;;;;14.54;100.00;100210.75;1698024;82;21045;-80
2021/09/20 03:00:45;;;;;;;13.90;7.53;;;;;;;14.49;100.00;100211.20;1667704;85;21471;-81
2021/09/20 03:03:12;;;;;;;17.50;9.48;;;;;;;14.54;100.00;100218.61;1699741;82;21026;-82
2021/09/20 03:05:39;;;;;;;16.57;10.43;;;;;;;14.54;100.00;100219.92;1695281;83;21571;-81
2021/09/20 03:08:07;;;;;;;35.80;11.12;;;;;;;14.51;100.00;100222.83;1691209;84;22400;-81
2021/09/20 03:10:36;;;;;;;24.50;14.10;;;;;;;14.47;100.00;100226.74;1689788;83;21098;-82
2021/09/20 03:13:03;;;;;;;20.90;14.03;;;;;;;14.35;100.00;100230.88;1693352;83;21034;-82
2021/09/20 03:15:30;;;;;;;28.62;14.58;;;;;;;14.22;100.00;100235.67;1668580;85;21086;-81
2021/09/20 03:17:57;;;;;;;36.48;15.10;;;;;;;14.12;100.00;100237.05;1668726;85;21106;-80
2021/09/20 03:20:26;;;;;;;22.02;13.80;;;;;;;14.10;100.00;100235.06;1686936;84;21065;-80
2021/09/20 03:22:54;;;;;;;33.78;14.60;;;;;;;14.11;100.00;100243.73;1749804;81;21094;-82
2021/09/20 03:25:22;;;;;;;26.23;13.65;;;;;;;14.14;100.00;100244.25;1720785;82;21080;-81
2021/09/20 03:27:49;;;;;;;19.92;11.78;;;;;;;14.16;100.00;100250.17;1743987;82;21065;-83
2021/09/20 03:30:17;;;;;;;25.60;13.53;;;;;;;14.20;100.00;100252.02;1717031;82;21060;-86
2021/09/20 03:32:44;;;;;;;13.30;11.33;;;;;;;14.13;100.00;100258.34;1716391;82;21077;-81
2021/09/20 03:35:14;;;;;;;10.78;9.78;;;;;;;14.08;100.00;100267.11;1717072;82;21022;-85
2021/09/20 03:37:46;;;;;;;11.05;10.03;;;;;;;13.98;100.00;100255.89;1741942;82;21563;-84
2021/09/20 03:40:18;;;;;;;10.43;9.53;;;;;;;13.79;100.00;100269.87;1744318;82;21050;-85
2021/09/20 03:42:46;;;;;;;9.88;8.88;;;;;;;13.62;100.00;100274.08;1744443;81;21069;-84
2021/09/20 03:45:13;;;;;;;9.85;8.90;;;;;;;13.45;100.00;100273.86;1738259;82;21127;-84
2021/09/20 03:47:41;;;;;;;13.65;9.38;;;;;;;13.21;100.00;100271.20;1744098;82;20992;-83
2021/09/20 03:50:10;;;;;;;10.25;9.40;;;;;;;13.10;100.00;100274.80;1715141;82;21094;-83
2021/09/20 03:52:40;;;;;;;13.65;12.33;;;;;;;13.03;100.00;100275.03;1733527;82;21965;-87
2021/09/20 03:55:08;;;;;;;17.05;15.18;;;;;;;12.97;100.00;100283.90;1733624;82;21077;-85
2021/09/20 03:57:35;;;;;;;22.77;16.95;;;;;;;12.92;100.00;100281.70;1704382;82;21070;-89
2021/09/20 04:00:04;;;;;;;20.40;17.52;;;;;;;12.89;100.00;100285.42;1728902;82;21082;-81
2021/09/20 04:02:33;;;;;;;15.72;13.85;;;;;;;12.84;100.00;100280.26;1704029;82;21125;-81
2021/09/20 04:05:00;;;;;;;16.02;10.38;;;;;;;12.80;100.00;100282.32;1704326;82;20959;-82
2021/09/20 04:07:29;;;;;;;9.48;8.48;;;;;;;12.72;100.00;100288.72;1733436;81;21022;-81
2021/09/20 04:09:57;;;;;;;11.03;7.33;;;;;;;12.61;100.00;100286.60;1728978;81;21063;-81
2021/09/20 04:12:24;;;;;;;24.12;8.50;;;;;;;12.51;100.00;100287.06;1728595;82;21026;-81
2021/09/20 04:14:52;;;;;;;24.45;6.97;;;;;;;12.47;100.00;100290.89;1734404;80;20982;-80
2021/09/20 04:17:20;;;;;;;23.27;5.90;;;;;;;12.46;100.00;100293.16;1734591;80;21038;-81
2021/09/20 04:19:49;;;;;;;24.55;5.75;;;;;;;12.35;100.00;100292.80;1695770;83;21083;-80
2021/09/20 04:22:16;;;;;;;6.17;4.67;;;;;;;12.22;100.00;100294.35;1647547;85;21146;-83
2021/09/20 04:24:43;;;;;;;5.03;4.60;;;;;;;12.15;100.00;100295.84;1667579;85;21558;-82
2021/09/20 04:27:11;;;;;;;4.60;4.08;;;;;;;12.04;100.00;100305.11;1705710;83;21045;-83
2021/09/20 04:29:38;;;;;;;9.93;4.50;;;;;;;11.90;100.00;100311.47;1679008;84;21063;-80
2021/09/20 04:32:07;;;;;;;4.70;4.20;;;;;;;11.80;100.00;100314.86;1698857;84;21058;-82
2021/09/20 04:34:34;;;;;;;4.70;4.30;;;;;;;11.72;100.00;100314.69;1715154;82;20987;-82
2021/09/20 04:37:01;;;;;;;8.80;4.30;;;;;;;11.61;100.00;100312.99;1740157;80;21014;-82
2021/09/20 04:39:28;;;;;;;5.60;4.22;;;;;;;11.54;100.00;100315.77;1708912;82;21532;-82
2021/09/20 04:41:55;;;;;;;8.20;4.50;;;;;;;11.57;100.00;100314.22;1709131;82;21011;-82
2021/09/20 04:44:23;;;;;;;7.65;4.72;;;;;;;11.62;100.00;100312.04;1737987;82;20944;-80
2021/09/20 04:46:51;;;;;;;4.72;4.33;;;;;;;11.74;100.00;100311.94;1708961;82;21064;-81
2021/09/20 04:49:19;;;;;;;4.72;4.33;;;;;;;11.76;100.00;100320.01;1709212;82;21038;-80
2021/09/20 04:51:46;;;;;;;4.35;4.05;;;;;;;11.78;100.00;100323.29;1709096;82;20951;-80
2021/09/20 04:54:13;;;;;;;6.12;3.42;;;;;;;11.82;100.00;100321.24;1708678;82;21054;-82
2021/09/20 04:56:40;;;;;;;5.20;3.60;;;;;;;11.81;100.00;100321.73;1738486;82;21046;-81
2021/09/20 04:59:07;;;;;;;3.98;3.40;;;;;;;11.82;100.00;100322.55;1709254;82;22291;-83
2021/09/20 05:01:36;;;;;;;4.15;3.33;;;;;;;11.80;100.00;100323.18;1738232;82;21038;-81
2021/09/20 05:04:03;;;;;;;5.00;2.92;;;;;;;11.78;100.00;100329.00;1737983;82;21513;-83
2021/09/20 05:06:29;;;;;;;5.97;2.65;;;;;;;11.75;100.00;100324.03;1738442;82;21102;-82
2021/09/20 05:08:58;;;;;;;4.15;2.98;;;;;;;11.75;100.00;100321.42;1709065;81;21077;-79
2021/09/20 05:11:26;;;;;;;3.27;3.02;;;;;;;11.82;100.00;100326.46;1709425;82;21042;-82
2021/09/20 05:13:55;;;;;;;2.80;2.60;;;;;;;11.87;100.00;100329.98;1738077;82;21545;-81
2021/09/20 05:16:23;;;;;;;3.00;2.80;;;;;;;11.93;100.00;100326.39;1738208;82;21003;-80
2021/09/20 05:18:52;;;;;;;3.67;3.37;;;;;;;11.95;100.00;100323.64;1738180;82;20959;-80
2021/09/20 05:21:19;;;;;;;4.12;3.72;;;;;;;11.96;100.00;100322.22;1709082;82;20991;-80
2021/09/20 05:23:47;;;;;;;6.85;3.95;;;;;;;11.98;100.00;100328.14;1738389;82;21409;-82
2021/09/20 05:26:14;;;;;;;7.05;5.25;;;;;;;12.12;100.00;100325.66;1709334;82;21085;-79
2021/09/20 05:28:41;;;;;;;7.47;5.50;;;;;;;12.18;100.00;100323.00;1709403;82;21568;-80
2021/09/20 05:31:08;;;;;;;5.45;4.95;;;;;;;12.23;100.00;100331.25;1738420;82;21059;-79
2021/09/20 05:33:35;;;;;;;6.08;5.05;;;;;;;12.27;100.00;100328.73;1709262;82;20956;-82
2021/09/20 05:36:06;;;;;;;7.03;4.90;;;;;;;12.35;100.00;100328.55;1738342;81;21034;-80
2021/09/20 05:38:35;;;;;;;5.12;4.37;;;;;;;12.44;100.00;100334.27;1709089;82;21011;-80
2021/09/20 05:41:02;;;;;;;3.17;2.75;;;;;;;12.51;100.00;100340.61;1709261;82;21014;-80
2021/09/20 05:43:29;;;;;;;2.75;2.42;;;;;;;12.56;100.00;100344.12;1709320;82;21015;-81
2021/09/20 05:45:56;;;;;;;2.45;2.15;;;;;;;12.58;100.00;100346.09;1709215;82;21014;-80
2021/09/20 05:48:23;;;;;;;2.90;2.60;;;;;;;12.61;100.00;100347.98;1738222;82;21784;-82
2021/09/20 05:50:52;;;;;;;4.53;3.30;;;;;;;12.63;100.00;100343.42;1735584;82;20983;-81
2021/09/20 05:53:19;;;;;;;6.70;4.78;;;;;;;12.59;100.00;100342.52;1707365;83;21517;-81
2021/09/20 05:55:46;;;;;;;6.62;5.10;;;;;;;12.53;100.00;100347.83;1707373;82;21007;-82
2021/09/20 05:58:13;;;;;;;6.00;5.45;;;;;;;12.49;100.00;100343.82;1707432;83;21410;-81
2021/09/20 06:00:40;;;;;;;9.13;7.40;;;;;;;12.45;100.00;100348.98;1707282;82;21747;-82
2021/09/20 06:03:08;;;;;;;13.15;9.90;;;;;;;12.43;100.00;100354.81;1707194;83;21007;-80
2021/09/20 06:05:38;;;;;;;14.20;10.50;;;;;;;12.42;100.00;100357.08;1707273;83;21079;-82
2021/09/20 06:08:06;;;;;;;10.98;8.38;;;;;;;12.42;100.00;100357.08;1703630;82;21117;-80
2021/09/20 06:10:36;;;;;;;13.00;8.03;;;;;;;12.46;100.00;100354.52;1706997;83;21118;-80
2021/09/20 06:13:07;;;;;;;;;;;;;;;12.52;100.00;100357.93;1710209;82;21086;-80
2021/09/20 06:15:36;;;;;;;15.58;12.05;;;;;;;12.62;100.00;100364.47;1707153;83;20140;-81
2021/09/20 06:18:06;;;;;;;14.58;12.18;;;;;;;12.68;100.00;100372.25;1728085;82;21003;-81
2021/09/20 06:20:35;;;;;;;13.77;10.73;;;;;;;12.72;100.00;100371.01;1728415;82;21458;-80
2021/09/20 06:23:06;;;;;;;18.15;12.33;;;;;;;12.71;100.00;100363.66;1728133;82;20948;-80
2021/09/20 06:25:34;;;;;;;15.30;12.65;;;;;;;12.75;100.00;100375.97;1707316;83;21536;-80
2021/09/20 06:28:01;;;;;;;16.73;12.73;;;;;;;12.85;100.00;100375.98;1707241;82;21054;-82
2021/09/20 06:30:28;;;;;;;17.92;14.00;;;;;;;12.92;100.00;100374.47;1707429;83;21114;-82
2021/09/20 06:32:55;;;;;;;19.50;14.75;;;;;;;13.01;100.00;100375.45;1707188;83;21054;-83
2021/09/20 06:35:22;;;;;;;20.62;15.32;;;;;;;13.14;100.00;100373.88;1683831;82;21085;-81
2021/09/20 06:37:49;;;;;;;18.42;14.30;;;;;;;13.20;100.00;100372.02;1707283;83;22143;-81
2021/09/20 06:40:16;;;;;;;19.98;13.70;;;;;;;13.28;100.00;100373.45;1707483;83;21530;-81
2021/09/20 06:42:43;;;;;;;23.85;16.12;;;;;;;13.41;100.00;100377.94;1693277;83;21050;-81
2021/09/20 06:45:11;;;;;;;22.93;16.00;;;;;;;13.52;100.00;100379.56;1652627;82;21060;-83
2021/09/20 06:47:38;;;;;;;23.00;16.55;;;;;;;13.61;100.00;100383.61;1642939;86;21056;-82
2021/09/20 06:50:07;;;;;;;20.00;16.02;;;;;;;13.69;100.00;100387.66;1658414;85;21749;-82
2021/09/20 06:52:34;;;;;;;22.62;17.23;;;;;;;13.77;100.00;100383.85;1675116;84;21075;-82
2021/09/20 06:55:04;;;;;;;27.87;15.48;;;;;;;13.85;100.00;100389.20;1739610;81;21010;-81
2021/09/20 06:57:31;;;;;;;20.80;14.05;;;;;;;13.94;100.00;100379.66;1710400;82;21015;-81
2021/09/20 06:59:58;;;;;;;15.80;9.63;;;;;;;14.08;100.00;100395.89;1710625;82;21058;-80
2021/09/20 07:02:25;;;;;;;11.10;7.97;;;;;;;14.16;100.00;100392.87;1710343;82;22410;-82
2021/09/20 07:04:53;;;;;;;9.53;6.85;;;;;;;14.24;100.00;100390.86;1709085;82;21006;-82
2021/09/20 07:07:20;;;;;;;5.65;4.28;;;;;;;14.32;100.00;100384.88;1739791;82;21009;-82
2021/09/20 07:09:47;;;;;;;5.90;3.83;;;;;;;14.42;100.00;100393.52;1709304;82;20984;-83
2021/09/20 07:12:15;;;;;;;6.95;3.90;;;;;;;14.48;100.00;100398.67;1710530;82;21358;-82
2021/09/20 07:14:44;;;;;;;9.43;3.50;;;;;;;14.53;100.00;100394.30;1707449;82;21140;-82
2021/09/20 07:17:11;;;;;;;6.92;3.65;;;;;;;14.51;100.00;100405.75;1696917;83;21038;-83
2021/09/20 07:19:39;;;;;;;4.80;3.62;;;;;;;14.44;100.00;100397.30;1712227;82;21516;-82
2021/09/20 07:22:06;;;;;;;6.42;4.55;;;;;;;14.32;100.00;100401.44;1690541;82;21029;-83
2021/09/20 07:24:32;;;;;;;4.50;4.03;;;;;;;14.28;100.00;100400.56;1704736;82;21002;-81
2021/09/20 07:27:01;;;;;;;5.95;4.47;;;;;;;14.29;100.00;100397.78;1732131;82;21137;-82
2021/09/20 07:29:28;;;;;;;7.05;4.75;;;;;;;14.32;100.00;100401.91;1684533;82;21112;-82
2021/09/20 07:31:55;;;;;;;5.03;4.03;;;;;;;14.36;100.00;100404.59;1709867;82;21065;-82
2021/09/20 07:34:22;;;;;;;6.05;4.62;;;;;;;14.46;100.00;100390.94;1661925;83;21558;-82
2021/09/20 07:36:49;;;;;;;5.60;4.65;;;;;;;14.56;100.00;100392.21;1705497;82;21068;-81
2021/09/20 07:39:17;;;;;;;6.05;4.92;;;;;;;14.62;100.00;100400.79;1689917;84;21483;-83
2021/09/20 07:41:45;;;;;;;8.43;5.03;;;;;;;14.64;100.00;100401.95;1702440;83;21353;-83
2021/09/20 07:44:12;;;;;;;6.85;5.35;;;;;;;14.67;100.00;100407.75;1661533;83;20966;-82
2021/09/20 07:46:40;;;;;;;7.40;5.60;;;;;;;14.76;100.00;100410.45;1634172;83;21132;-82
2021/09/20 07:49:07;;;;;;;6.08;5.47;;;;;;;14.88;100.00;100400.58;1656366;83;21583;-81
2021/09/20 07:51:34;;;;;;;6.22;4.75;;;;;;;14.92;100.00;100398.02;1685081;82;21034;-82
2021/09/20 07:54:02;;;;;;;4.55;4.15;;;;;;;14.93;100.00;100395.73;1652353;84;21120;-81
2021/09/20 07:56:31;;;;;;;4.22;3.80;;;;;;;14.97;100.00;100399.69;1650724;85;21155;-81
2021/09/20 07:59:00;;;;;;;6.28;4.55;;;;;;;14.97;100.00;100398.38;1687280;83;20997;-82
2021/09/20 08:01:29;;;;;;;6.72;4.50;;;;;;;14.87;100.00;100395.84;1658132;85;21045;-82
2021/09/20 08:03:56;;;;;;;4.92;4.05;;;;;;;14.87;100.00;100396.30;1664979;85;21041;-81
2021/09/20 08:06:24;;;;;;;6.90;3.37;;;;;;;14.97;100.00;100394.45;1657880;85;21092;-83
2021/09/20 08:08:51;;;;;;;4.95;3.98;;;;;;;15.10;100.00;100390.14;1635547;85;21068;-80
2021/09/20 08:11:18;;;;;;;4.37;3.85;;;;;;;15.18;100.00;100392.84;1635748;85;21469;-83
2021/09/20 08:13:47;;;;;;;7.95;4.20;;;;;;;15.26;100.00;100394.22;1657720;85;21009;-82
2021/09/20 08:16:15;;;;;;;7.83;4.35;;;;;;;15.31;100.00;100397.70;1687231;83;21041;-82
2021/09/20 08:18:44;;;;;;;5.42;3.75;;;;;;;15.43;100.00;100395.66;1657734;85;21001;-84
2021/09/20 08:21:12;;;;;;;11.20;3.37;;;;;;;15.50;100.00;100386.70;1687278;83;21045;-81
2021/09/20 08:23:41;;;;;;;4.28;2.52;;;;;;;15.56;100.00;100392.14;1687205;84;21006;-81
2021/09/20 08:26:09;;;;;;;6.75;2.52;;;;;;;15.62;100.00;100385.46;1657913;85;21598;-82
2021/09/20 08:28:37;;;;;;;5.97;2.47;;;;;;;15.65;100.00;100382.54;1635915;83;21679;-80
2021/09/20 08:31:05;;;;;;;5.60;2.62;;;;;;;15.69;100.00;100390.42;1687313;83;21543;-82
2021/09/20 08:33:32;;;;;;;4.55;2.10;;;;;;;15.70;100.00;100393.89;1658362;83;21080;-83
2021/09/20 08:35:59;;;;;;;3.05;1.70;;;;;;;15.69;100.00;100393.55;1658249;85;21064;-82
2021/09/20 08:38:26;;;;;;;2.55;1.65;;;;;;;15.57;100.00;100396.41;1658053;83;21025;-80
2021/09/20 08:40:54;;;;;;;2.70;1.40;;;;;;;15.43;100.00;100397.78;1658055;85;21115;-81
2021/09/20 08:43:22;;;;;;;1.42;1.32;;;;;;;15.27;100.00;100397.19;1687425;83;21024;-81
2021/09/20 08:45:49;;;;;;;1.70;1.60;;;;;;;15.17;100.00;100399.05;1658089;83;21036;-81
2021/09/20 08:48:16;;;;;;;3.87;1.12;;;;;;;15.07;100.00;100408.31;1658240;84;21484;-82
2021/09/20 08:50:44;;;;;;;1.40;1.20;;;;;;;15.02;100.00;100405.80;1658155;83;21009;-82
2021/09/20 08:53:11;;;;;;;4.67;1.87;;;;;;;15.01;100.00;100402.37;1703627;82;21071;-83
2021/09/20 08:55:39;;;;;;;1.75;1.40;;;;;;;15.01;100.00;100403.68;1710143;81;21043;-81
2021/09/20 08:58:06;;;;;;;3.12;1.60;;;;;;;14.98;100.00;100404.77;1710160;82;21754;-80
2021/09/20 09:00:34;;;;;;;2.80;1.25;;;;;;;14.97;100.00;100401.00;1710535;82;21007;-81
2021/09/20 09:03:03;;;;;;;1.32;1.20;;;;;;;14.93;100.00;100408.84;1710656;82;21514;-81
2021/09/20 09:05:32;;;;;;;1.42;1.32;;;;;;;14.89;100.00;100404.86;1710414;82;21909;-82
2021/09/20 09:08:06;;;;;;;2.50;1.62;;;;;;;14.98;100.00;100416.58;1734202;82;21020;-82
2021/09/20 09:10:37;;;;;;;2.62;1.50;;;;;;;15.11;100.00;100409.66;1742327;81;21075;-82
2021/09/20 09:13:08;;;;;;;1.30;1.20;;;;;;;15.22;100.00;100415.66;1703212;83;21033;-81
2021/09/20 09:15:37;;;;;;;1.55;1.32;;;;;;;15.24;100.00;100420.27;1697685;83;21097;-81
2021/09/20 09:18:07;;;;;;;3.98;1.40;;;;;;;15.17;100.00;100420.53;1723663;82;21069;-83
2021/09/20 09:20:39;;;;;;;2.65;1.62;;;;;;;15.09;100.00;100410.78;1733175;81;21070;-83
2021/09/20 09:23:11;;;;;;;4.62;2.17;;;;;;;14.91;100.00;100419.95;1733124;82;21549;-80
2021/09/20 09:25:49;;;;;;;;;;;;;;;14.78;100.00;100421.13;1731196;82;21045;-80
2021/09/20 09:28:23;;;;;;;1.30;1.20;;;;;;;14.78;100.00;100415.88;1684078;82;20186;-83
2021/09/20 09:30:59;;;;;;;3.17;1.82;;;;;;;15.01;100.00;100415.48;1704210;82;21115;-82
2021/09/20 09:33:40;;;;;;;2.10;1.60;;;;;;;15.29;100.00;100421.47;1703030;82;21072;-80
2021/09/20 09:36:10;;;;;;;1.90;1.75;;;;;;;15.60;100.00;100422.84;1733214;81;21014;-81
2021/09/20 09:38:37;;;;;;;1.52;1.35;;;;;;;15.80;100.00;100422.16;1733304;82;21137;-80
2021/09/20 09:41:05;;;;;;;2.58;1.90;;;;;;;15.83;100.00;100425.83;1726848;82;21027;-80
2021/09/20 09:43:37;;;;;;;2.40;1.52;;;;;;;15.75;100.00;100430.48;1705238;82;21072;-81
2021/09/20 09:46:24;;;;;;;;;;;;;;;15.69;100.00;100431.11;1728676;82;21012;-79
2021/09/20 09:48:54;;;;;;;1.65;1.47;;;;;;;15.64;100.00;100429.44;1728100;82;20087;-80
2021/09/20 09:51:21;;;;;;;2.85;1.50;;;;;;;15.54;100.00;100428.20;1704671;82;21014;-80
2021/09/20 09:53:50;;;;;;;2.55;1.40;;;;;;;15.40;100.00;100436.63;1727179;82;21070;-80
2021/09/20 09:56:25;;;;;;;2.10;1.50;;;;;;;15.17;100.00;100434.45;1662319;84;22051;-82
2021/09/20 09:59:01;;;;;;;2.33;1.85;;;;;;;15.03;100.00;100437.61;1649465;85;21557;-80
2021/09/20 10:01:39;;;;;;;2.22;1.72;;;;;;;14.93;100.00;100439.80;1675216;85;21601;-81
2021/09/20 10:04:20;;;;;;;2.05;1.85;;;;;;;14.91;100.00;100442.23;1644674;85;21230;-81
2021/09/20 10:06:58;;;;;;;1.95;1.80;;;;;;;14.91;100.00;100443.05;1690035;83;21067;-82
2021/09/20 10:09:28;;;;;;;1.70;1.60;;;;;;;14.92;100.00;100437.34;1681229;84;21172;-81
2021/09/20 10:11:59;;;;;;;2.33;1.65;;;;;;;14.95;100.00;100437.87;1680836;85;21058;-82
2021/09/20 10:14:29;;;;;;;2.37;2.17;;;;;;;15.00;100.00;100441.36;1690391;84;21158;-82
2021/09/20 10:16:59;;;;;;;2.83;2.00;;;;;;;15.05;100.00;100446.16;1635135;85;21034;-83
2021/09/20 10:19:27;;;;;;;3.17;2.20;;;;;;;15.01;100.00;100439.08;1675809;84;21081;-81
2021/09/20 10:21:55;;;;;;;2.22;2.02;;;;;;;14.81;100.00;100443.12;1644140;86;21027;-83
2021/09/20 10:24:24;;;;;;;3.92;2.30;;;;;;;14.63;100.00;100440.91;1665189;84;21061;-81
2021/09/20 10:26:51;;;;;;;2.30;2.10;;;;;;;14.43;100.00;100441.02;1734704;81;21621;-81
2021/09/20 10:29:21;;;;;;;2.67;2.02;;;;;;;14.31;100.00;100440.84;1690064;82;21006;-81
2021/09/20 10:31:49;;;;;;;3.30;2.17;;;;;;;14.27;100.00;100448.16;1713730;82;21043;-81
2021/09/20 10:34:24;;;;;;;2.35;2.05;;;;;;;14.26;100.00;100439.97;1709529;82;21973;-81
2021/09/20 10:37:12;;;;;;;2.50;2.30;;;;;;;14.29;100.00;100437.56;1699883;81;21036;-82
2021/09/20 10:40:01;;;;;;;2.60;2.40;;;;;;;14.29;100.00;100440.19;1737483;81;21072;-82
2021/09/20 10:42:47;;;;;;;4.47;3.40;;;;;;;14.27;100.00;100437.69;1706704;82;21140;-82
2021/09/20 10:45:44;;;;;;;6.53;3.40;;;;;;;14.26;100.00;100444.39;1741888;82;21024;-81
2021/09/20 10:48:26;;;;;;;3.08;2.77;;;;;;;14.24;100.00;100446.32;1668870;84;21141;-82
2021/09/20 10:51:02;;;;;;;4.03;2.60;;;;;;;14.23;100.00;100453.37;1646574;86;21148;-81
2021/09/20 10:53:33;;;;;;;3.37;2.85;;;;;;;14.28;100.00;100455.55;1660688;86;21123;-80
2021/09/20 10:56:11;;;;;;;2.70;2.50;;;;;;;14.41;100.00;100453.92;1673003;84;21129;-81
2021/09/20 10:58:44;;;;;;;3.25;2.92;;;;;;;14.61;100.00;100449.42;1663592;84;21042;-80
2021/09/20 11:01:19;;;;;;;3.10;2.80;;;;;;;14.82;100.00;100451.83;1647327;84;21149;-80
2021/09/20 11:03:53;;;;;;;4.83;3.22;;;;;;;14.93;100.00;100454.22;1670676;84;21029;-82
2021/09/20 11:06:25;;;;;;;3.55;3.25;;;;;;;14.96;100.00;100447.85;1670505;84;21388;-80
2021/09/20 11:09:10;;;;;;;10.35;7.15;;;;;;;14.94;100.00;100451.13;1699027;84;21042;-80
2021/09/20 11:11:42;;;;;;;8.55;6.62;;;;;;;14.93;100.00;100458.66;1698872;84;21069;-80
2021/09/20 11:14:18;;;;;;;7.80;6.37;;;;;;;14.86;100.00;100454.48;1669104;84;21043;-80
2021/09/20 11:16:54;;;;;;;5.17;4.78;;;;;;;14.78;100.00;100459.12;1660829;84;21164;-81
2021/09/20 11:19:33;;;;;;;4.72;4.33;;;;;;;14.72;100.00;100463.66;1698791;84;21138;-80